Flight Track Log - Related Links

Times and Time Zones

All times are in EDT time to prevent confusion due to time zone crossing. See the XOJ782 flight status page for this flight to view local times or setup timezone preferences in your user account.

Time Position Orientation Groundspeed Altitude Reporting Facility
EDT Latitude Longitude Course Direction KTS MPH feet Rate Location/Type
Wed 09:08:58 AM 43.6364 -70.4950 251° West 230 265 5,400  Level Boston Center
Wed 09:09:58 AM 43.6397 -70.5753 273° West 253 291 7,700 2,579 Climbing Boston Center
Wed 09:10:59 AM 43.6583 -70.6981 282° West 272 313 10,600 2,500 Climbing Boston Center
Wed 09:12:10 AM 43.6542 -70.8444 268° West 318 366 13,200 2,136 Climbing Boston Center
Wed 09:13:00 AM 43.6147 -71.2590 253° West  Level FlightAware Approximate
Wed 09:13:11 AM 43.6456 -70.9739 265° West 337 388 15,300  Level Boston Center
Wed 09:14:00 AM 43.5787 -71.4187 251° West  Level FlightAware Approximate
Wed 09:14:12 AM 43.6367 -71.1033 265° West 337 388 17,700  Level Boston Center
Wed 09:15:12 AM 43.6258 -71.2356 264° West 347 399 19,200 1,729 Climbing Boston Center
Wed 09:16:10 AM 43.6167 -71.3733 265° West 352 405 21,100 1,800 Climbing Boston Center
Wed 09:17:22 AM 43.6075 -71.5111 265° West 357 411 23,100 1,624 Climbing Boston Center
Wed 09:18:23 AM 43.5961 -71.6803 265° West 369 425 24,700 1,574 Climbing Boston Center
Wed 09:19:24 AM 43.5844 -71.8208 264° West 374 430 26,300 1,513 Climbing Boston Center
Wed 09:20:22 AM 43.5747 -71.9614 265° West 379 436 27,700 1,361 Climbing Boston Center
Wed 09:21:23 AM 43.5650 -72.1133 265° West 392 451 29,000 1,250 Climbing Boston Center
Wed 09:22:22 AM 43.5506 -72.2653 263° West 397 457 30,200 1,050 Climbing Boston Center
Wed 09:23:23 AM 43.5403 -72.3886 263° West 402 463 31,100 1,164 Climbing Boston Center
Wed 09:24:36 AM 43.5236 -72.6089 264° West 408 470 32,800 1,398 Climbing Boston Center
Wed 09:25:36 AM 43.5086 -72.7722 263° West 414 476 34,200 1,765 Climbing Boston Center
Wed 09:26:35 AM 43.4956 -72.9322 264° West 427 491 36,300 1,866 Climbing Boston Center
Wed 09:27:35 AM 43.4803 -73.0725 262° West 427 491 37,900 1,587 Climbing Boston Center
Wed 09:28:36 AM 43.4647 -73.2267 262° West 422 486 39,500 1,190 Climbing Boston Center
Wed 09:29:36 AM 43.4531 -73.3781 264° West 410 472 40,300 712 Climbing Boston Center
Wed 09:30:34 AM 43.4392 -73.5322 263° West 410 472 40,900 504 Climbing Boston Center
Wed 09:31:35 AM 43.4231 -73.6922 262° West 410 472 41,300 443 Climbing Boston Center
Wed 09:32:36 AM 43.4086 -73.8519 263° West 415 478 41,800 496 Climbing Boston Center
Wed 09:33:48 AM 43.3917 -74.0400 263° West 420 483 42,400 462 Climbing Boston Center
Wed 09:34:46 AM 43.3744 -74.2197 263° West 425 489 42,800 305 Climbing Boston Center
Wed 09:35:46 AM 43.3594 -74.3678 262° West 425 489 43,000 82 Climbing Boston Center
Wed 09:37:12 AM 43.3383 -74.6183 263° West 436 502 43,000  Level Boston Center
Wed 09:38:12 AM 43.3183 -74.7889 261° West 453 521 43,000  Level Boston Center
Wed 09:39:12 AM 43.3019 -74.9650 263° West 463 533 43,000  Level Boston Center
Wed 09:40:10 AM 43.2814 -75.1353 261° West 463 533 43,000  Level Boston Center
Wed 09:41:10 AM 43.2631 -75.2914 261° West 463 533 43,000  Level Boston Center
Wed 09:42:11 AM 43.2439 -75.4644 261° West 463 533 43,000  Level Boston Center
Wed 09:43:11 AM 43.2267 -75.6403 262° West 463 533 43,000  Level Boston Center
Wed 09:44:12 AM 43.2050 -75.8131 260° West 463 533 43,000  Level Boston Center
Wed 09:45:12 AM 43.1853 -75.9856 261° West 463 533 43,000  Level Boston Center
Wed 09:46:56 AM 43.1500 -76.3000 261° West 460 529 43,000  Level Toronto Center
Wed 09:47:40 AM 43.1586 -76.4247 275° West 465 535 43,000  Level Cleveland Center
Wed 09:48:40 AM 43.1586 -76.5983 270° West 465 535 43,000  Level Cleveland Center
Wed 09:49:40 AM 43.1606 -76.7778 271° West 465 535 43,000  Level Cleveland Center
Wed 09:50:40 AM 43.1619 -76.9542 271° West 465 535 43,000  Level Cleveland Center
Wed 09:51:40 AM 43.1611 -77.1278 270° West 460 529 43,000  Level Cleveland Center
Wed 09:52:40 AM 43.1600 -77.3044 270° West 460 529 43,000  Level Cleveland Center
Wed 09:53:40 AM 43.1606 -77.4836 270° West 460 529 43,000  Level Cleveland Center
Wed 09:54:40 AM 43.1589 -77.6575 269° West 460 529 43,000  Level Cleveland Center
Wed 09:55:40 AM 43.1592 -77.8394 270° West 466 536 43,000  Level Cleveland Center
Wed 09:56:40 AM 43.1569 -78.0161 269° West 466 536 43,000  Level Cleveland Center
Wed 09:57:40 AM 43.1567 -78.1983 270° West 473 544 43,000  Level Cleveland Center
Wed 09:58:40 AM 43.1539 -78.3750 269° West 473 544 43,000  Level Cleveland Center
Wed 09:59:40 AM 43.1531 -78.5569 270° West 478 550 43,000  Level Cleveland Center
Wed 10:00:40 AM 43.1500 -78.7336 269° West 478 550 43,000  Level Cleveland Center
Wed 10:01:40 AM 43.1483 -78.9100 269° West 478 550 43,000 100 Level Cleveland Center
Wed 10:02:40 AM 43.1425 -79.0894 268° West 478 550 43,200 132 Climbing Cleveland Center
Wed 10:03:56 AM 43.1333 -79.3167 267° West 470 541 43,300 132 Climbing Toronto Center
Wed 10:04:56 AM 43.1167 -79.5000 263° West 470 541 43,500 150 Climbing Toronto Center
Wed 10:05:56 AM 43.1167 -79.6833 270° West 470 541 43,600 150 Climbing Toronto Center
Wed 10:06:56 AM 43.1167 -79.8333 270° West 460 529 43,800 150 Climbing Toronto Center
Wed 10:07:56 AM 43.1167 -80.0167 270° West 460 529 43,900 100 Climbing Toronto Center
Wed 10:08:56 AM 43.1000 -80.2000 263° West 460 529 44,000 150 Climbing Toronto Center
Wed 10:09:56 AM 43.1000 -80.3833 270° West 460 529 44,200 150 Climbing Toronto Center
Wed 10:10:56 AM 43.1000 -80.5500 270° West 460 529 44,300 150 Climbing Toronto Center
Wed 10:11:56 AM 43.1000 -80.7333 270° West 460 529 44,500 150 Climbing Toronto Center
Wed 10:12:56 AM 43.0833 -80.9167 263° West 460 529 44,600 200 Climbing Toronto Center
Wed 10:13:56 AM 43.0667 -81.0667 261° West 460 529 44,900 200 Climbing Toronto Center
Wed 10:14:56 AM 43.0667 -81.2500 270° West 460 529 45,000 50 Climbing Toronto Center
Wed 10:15:56 AM 43.0667 -81.4167 270° West 460 529 45,000  Level Toronto Center
Wed 10:16:56 AM 43.0667 -81.6000 270° West 460 529 45,000  Level Toronto Center
Wed 10:17:56 AM 43.0500 -81.7833 263° West 460 529 45,000  Level Toronto Center
Wed 10:18:56 AM 43.0333 -81.9667 263° West 460 529 45,000  Level Toronto Center
Wed 10:19:56 AM 43.0333 -82.1167 270° West 460 529 45,000  Level Toronto Center
Wed 10:20:56 AM 43.0333 -82.3000 270° West 460 529 45,000  Level Toronto Center
Wed 10:21:56 AM 43.0333 -82.4833 270° West 460 529 45,000  Level Toronto Center
Wed 10:22:56 AM 43.0000 -82.6500 255° West 470 541 45,000  Level Toronto Center
Wed 10:23:28 AM 43.0214 -82.7414 288° West 464 534 45,000  Level Cleveland Center
Wed 10:24:28 AM 43.0117 -82.9172 266° West 464 534 45,000  Level Cleveland Center
Wed 10:25:28 AM 43.0019 -83.0928 266° West 464 534 45,000  Level Cleveland Center
Wed 10:26:28 AM 42.9936 -83.2742 266° West 469 540 45,000  Level Cleveland Center
Wed 10:27:28 AM 42.9831 -83.4497 265° West 469 540 45,000  Level Cleveland Center
Wed 10:28:28 AM 42.9703 -83.6308 265° West 474 545 45,000  Level Cleveland Center
Wed 10:29:28 AM 42.9508 -83.8056 261° West 479 551 45,000  Level Cleveland Center
Wed 10:30:28 AM 42.9189 -83.9769 256° West 479 551 45,000  Level Cleveland Center
Wed 10:31:28 AM 42.8844 -84.1508 255° West 479 551 45,000  Level Cleveland Center
Wed 10:32:25 AM 42.8494 -84.3247 255° West 472 543 45,000  Level Chicago Center
Wed 10:33:27 AM 42.8133 -84.4972 254° West 474 545 45,000  Level Chicago Center
Wed 10:34:29 AM 42.7778 -84.6675 254° West 469 540 45,000  Level Chicago Center
Wed 10:35:32 AM 42.7417 -84.8397 254° West 472 543 45,000  Level Chicago Center
Wed 10:36:34 AM 42.7064 -85.0072 254° West 464 534 45,000  Level Chicago Center
Wed 10:37:36 AM 42.6708 -85.1756 254° West 463 533 45,000  Level Chicago Center
Wed 10:38:38 AM 42.6272 -85.3756 254° West 460 529 45,000  Level Chicago Center
Wed 10:39:40 AM 42.5900 -85.5428 253° West 461 531 45,000  Level Chicago Center
Wed 10:40:42 AM 42.5539 -85.7119 254° West 464 534 45,000  Level Chicago Center
Wed 10:41:44 AM 42.5292 -85.8811 259° West 457 526 45,000  Level Chicago Center
Wed 10:42:46 AM 42.5033 -86.0511 258° West 458 527 45,000  Level Chicago Center
Wed 10:43:48 AM 42.4789 -86.2203 259° West 458 527 45,000  Level Chicago Center
Wed 10:44:50 AM 42.4533 -86.3897 259° West 459 528 45,000  Level Chicago Center
Wed 10:45:52 AM 42.4217 -86.5925 258° West 460 529 45,000  Level Chicago Center
Wed 10:46:55 AM 42.3961 -86.7628 259° West 461 531 45,000  Level Chicago Center
Wed 10:47:57 AM 42.3686 -86.9317 258° West 460 529 45,000  Level Chicago Center
Wed 10:48:59 AM 42.3417 -87.1014 258° West 461 531 45,000  Level Chicago Center
Wed 10:50:01 AM 42.3114 -87.2922 258° West 457 526 45,000  Level Chicago Center
Wed 10:51:03 AM 42.2836 -87.4619 258° West 461 531 45,000  Level Chicago Center
Wed 10:52:05 AM 42.2558 -87.6322 258° West 463 533 45,000  Level Chicago Center
Wed 10:53:07 AM 42.2292 -87.8022 258° West 461 531 45,000  Level Chicago Center
Wed 10:54:09 AM 42.2000 -87.9708 257° West 460 529 45,000  Level Chicago Center
Wed 10:55:11 AM 42.1683 -88.1675 258° West 458 527 45,000  Level Chicago Center
Wed 10:56:13 AM 42.1389 -88.3364 257° West 460 529 45,000  Level Chicago Center
Wed 10:57:15 AM 42.1103 -88.5078 257° West 465 535 45,000  Level Chicago Center
Wed 10:58:18 AM 42.0808 -88.6769 257° West 464 534 45,000  Level Chicago Center
Wed 10:59:20 AM 42.0517 -88.8469 257° West 464 534 45,000  Level Chicago Center
Wed 11:00:22 AM 42.0214 -89.0161 257° West 464 534 45,000  Level Chicago Center
Wed 11:01:25 AM 41.9878 -89.2031 256° West 466 536 45,000  Level Chicago Center
Wed 11:02:27 AM 41.9581 -89.3728 257° West 466 536 45,000  Level Chicago Center
Wed 11:03:29 AM 41.9275 -89.5422 256° West 468 539 45,000  Level Chicago Center
Wed 11:04:31 AM 41.8933 -89.7242 256° West 466 536 45,000  Level Chicago Center
Wed 11:05:33 AM 41.8600 -89.9111 257° West 465 535 45,000  Level Chicago Center
Wed 11:06:35 AM 41.8325 -90.0561 256° West 462 532 45,000  Level Chicago Center
Wed 11:07:38 AM 41.7953 -90.2561 256° West 464 534 45,000  Level Chicago Center
Wed 11:08:40 AM 41.7639 -90.4133 255° West 470 541 45,000  Level Chicago Center
Wed 11:09:42 AM 41.7333 -90.5792 256° West 462 532 45,000  Level Chicago Center
Wed 11:10:44 AM 41.6983 -90.7564 255° West 463 533 45,000  Level Chicago Center
Wed 11:11:46 AM 41.6664 -90.9222 256° West 463 533 45,000  Level Chicago Center
Wed 11:12:48 AM 41.6275 -91.1197 255° West 461 531 45,000  Level Chicago Center
Wed 11:14:00 AM 41.5854 -91.3075 255° West  Level FlightAware Approximate
Wed 11:14:52 AM 41.5619 -91.4506 255° West 462 532 45,000  Level Chicago Center
Wed 11:15:54 AM 41.5286 -91.6172 255° West 467 537 45,000  Level Chicago Center
Wed 11:16:56 AM 41.4950 -91.7825 255° West 466 536 45,000  Level Chicago Center
Wed 11:17:58 AM 41.4539 -91.9819 255° West 468 539 45,000  Level Chicago Center
Wed 11:19:01 AM 41.4189 -92.1472 254° West 466 536 45,000  Level Chicago Center
Wed 11:20:03 AM 41.3850 -92.3147 255° West 470 541 45,000  Level Chicago Center
Wed 11:21:05 AM 41.3489 -92.4844 254° West 469 540 45,000  Level Chicago Center
Wed 11:22:07 AM 41.3142 -92.6489 254° West 468 539 45,000  Level Chicago Center
Wed 11:23:09 AM 41.2789 -92.8133 254° West 467 537 45,000  Level Chicago Center
Wed 11:23:47 AM 41.2500 -92.9467 254° West 470 541 45,000  Level Minneapolis Center
Wed 11:25:02 AM 41.2072 -93.1453 254° West 471 542 45,000  Level Minneapolis Center
Wed 11:26:04 AM 41.1719 -93.3078 254° West 468 539 45,000  Level Minneapolis Center
Wed 11:27:06 AM 41.1364 -93.4681 254° West 463 533 45,000  Level Minneapolis Center
Wed 11:28:08 AM 41.0942 -93.6625 254° West 461 531 45,000  Level Minneapolis Center
Wed 11:29:10 AM 41.0567 -93.8256 253° West 464 534 45,000  Level Minneapolis Center
Wed 11:30:12 AM 41.0175 -93.9919 253° West 471 542 45,000  Level Minneapolis Center
Wed 11:31:14 AM 40.9822 -94.1508 254° West 468 539 45,000  Level Minneapolis Center
Wed 11:32:16 AM 40.9381 -94.3417 253° West 460 529 45,000  Level Minneapolis Center
Wed 11:33:19 AM 40.9031 -94.4986 254° West 456 525 45,000  Level Minneapolis Center
Wed 11:34:21 AM 40.8636 -94.6658 253° West 458 527 45,000  Level Minneapolis Center
Wed 11:35:23 AM 40.8256 -94.8264 253° West 459 528 45,000  Level Minneapolis Center
Wed 11:36:25 AM 40.7872 -94.9875 253° West 459 528 45,000  Level Minneapolis Center
Wed 11:37:27 AM 40.7489 -95.1494 253° West 461 531 45,000  Level Minneapolis Center
Wed 11:38:29 AM 40.7103 -95.3100 252° West 458 527 45,000  Level Minneapolis Center
Wed 11:39:31 AM 40.6717 -95.4706 252° West 458 527 45,000  Level Minneapolis Center
Wed 11:40:33 AM 40.6250 -95.6653 253° West 461 531 45,000  Level Minneapolis Center
Wed 11:41:35 AM 40.5864 -95.8247 252° West 457 526 45,000 48 Level Minneapolis Center
Wed 11:42:37 AM 40.5472 -95.9844 252° West 457 526 45,100 145 Climbing Minneapolis Center
Wed 11:43:39 AM 40.5072 -96.1422 252° West 454 522 45,300 194 Climbing Minneapolis Center
Wed 11:44:41 AM 40.4678 -96.3014 252° West 455 524 45,500 194 Climbing Minneapolis Center
Wed 11:45:43 AM 40.4289 -96.4600 252° West 456 525 45,700 194 Climbing Minneapolis Center
Wed 11:46:45 AM 40.3881 -96.6164 251° West 453 521 45,900 192 Climbing Minneapolis Center
Wed 11:47:48 AM 40.3400 -96.8067 252° West 455 524 46,100 240 Climbing Minneapolis Center
Wed 11:48:50 AM 40.3008 -96.9647 252° West 456 525 46,400 242 Climbing Minneapolis Center
Wed 11:49:52 AM 40.2614 -97.1183 251° West 451 519 46,600 145 Climbing Minneapolis Center
Wed 11:50:54 AM 40.2311 -97.2736 256° West 445 512 46,700 145 Climbing Minneapolis Center
Wed 11:51:56 AM 40.2031 -97.4314 257° West 442 509 46,900 145 Climbing Minneapolis Center
Wed 11:52:58 AM 40.1758 -97.5881 257° West 442 509 47,000 44 Climbing Minneapolis Center
Wed 11:54:12 AM 40.1367 -97.8086 257° West 444 511 47,000  Level Minneapolis Center
Wed 11:55:14 AM 40.1081 -97.9669 257° West 445 512 47,000  Level Minneapolis Center
Wed 11:56:17 AM 40.0814 -98.1272 258° West 447 514 47,000  Level Minneapolis Center
Wed 11:57:19 AM 40.0567 -98.2886 259° West 450 518 47,000  Level Minneapolis Center
Wed 11:58:21 AM 40.0292 -98.4489 257° West 452 520 47,000  Level Minneapolis Center
Wed 11:59:23 AM 39.9992 -98.6083 256° West 453 521 47,000  Level Minneapolis Center
Wed 12:00:25 PM 39.9586 -98.7975 254° West 453 521 47,000  Level Minneapolis Center
Wed 12:01:10 PM 39.9367 -98.9125 256° West 455 524 47,000  Level Denver Center
Wed 12:02:12 PM 39.9053 -99.0650 255° West 454 522 47,000  Level Denver Center
Wed 12:03:14 PM 39.8700 -99.2389 255° West 446 513 47,000  Level Denver Center
Wed 12:04:16 PM 39.8397 -99.3889 255° West 446 513 47,000  Level Denver Center
Wed 12:05:18 PM 39.8039 -99.5592 255° West 439 505 47,000  Level Denver Center
Wed 12:06:20 PM 39.7731 -99.7050 255° West 438 504 47,000  Level Denver Center
Wed 12:07:22 PM 39.7378 -99.8736 255° West 434 499 47,000  Level Denver Center
Wed 12:08:25 PM 39.7072 -100.0189 255° West 434 499 47,000  Level Denver Center
Wed 12:09:27 PM 39.6714 -100.1892 255° West 436 502 47,000  Level Denver Center
Wed 12:10:29 PM 39.6394 -100.3308 254° West 431 496 47,000  Level Denver Center
Wed 12:11:31 PM 39.6092 -100.4758 255° West 433 498 47,000  Level Denver Center
Wed 12:12:33 PM 39.5725 -100.6442 254° West 432 497 47,000  Level Denver Center
Wed 12:13:35 PM 39.5408 -100.7883 254° West 433 498 47,000  Level Denver Center
Wed 12:14:37 PM 39.5028 -100.9594 254° West 441 507 47,000  Level Denver Center
Wed 12:15:39 PM 39.4708 -101.1042 254° West 438 504 47,000  Level Denver Center
Wed 12:16:41 PM 39.4328 -101.2736 254° West 439 505 47,000  Level Denver Center
Wed 12:17:43 PM 39.4003 -101.4197 254° West 441 507 47,000  Level Denver Center
Wed 12:18:45 PM 39.3619 -101.5872 254° West 436 502 47,000  Level Denver Center
Wed 12:19:47 PM 39.3286 -101.7311 253° West 437 503 47,000  Level Denver Center
Wed 12:20:49 PM 39.2939 -101.8856 254° West 438 504 47,000  Level Denver Center
Wed 12:21:51 PM 39.2553 -102.0522 253° West 437 503 47,000  Level Denver Center
Wed 12:22:54 PM 39.2214 -102.1950 253° West 436 502 47,000  Level Denver Center
Wed 12:23:56 PM 39.1831 -102.3614 253° West 436 502 47,000  Level Denver Center
Wed 12:24:58 PM 39.1489 -102.5033 253° West 435 501 47,000  Level Denver Center
Wed 12:26:00 PM 39.1094 -102.6711 253° West 438 504 47,000  Level Denver Center
Wed 12:27:02 PM 39.0731 -102.8233 253° West 436 502 47,000  Level Denver Center
Wed 12:28:04 PM 39.0367 -102.9739 253° West 438 504 47,000  Level Denver Center
Wed 12:29:06 PM 39.0000 -103.1247 253° West 439 505 47,000  Level Denver Center
Wed 12:30:08 PM 38.9633 -103.2750 253° West 441 507 47,000  Level Denver Center
Wed 12:31:10 PM 38.9236 -103.4264 251° West 444 511 47,000  Level Denver Center
Wed 12:32:12 PM 38.8883 -103.5736 253° West 435 501 47,000  Level Denver Center
Wed 12:33:14 PM 38.8447 -103.7478 252° West 443 510 47,000  Level Denver Center
Wed 12:34:16 PM 38.8097 -103.8906 253° West 440 506 47,000  Level Denver Center
Wed 12:35:18 PM 38.7672 -104.0575 252° West 441 507 47,000  Level Denver Center
Wed 12:36:20 PM 38.7306 -104.2064 253° West 445 512 47,000  Level Denver Center
Wed 12:37:22 PM 38.6931 -104.3556 252° West 441 507 47,000  Level Denver Center
Wed 12:38:25 PM 38.6539 -104.5044 251° West 441 507 47,000  Level Denver Center
Wed 12:39:27 PM 38.6158 -104.6536 252° West 440 506 47,000  Level Denver Center
Wed 12:40:29 PM 38.5694 -104.8328 252° West 441 507 47,000  Level Denver Center
Wed 12:41:31 PM 38.5303 -104.9822 252° West 443 510 47,000  Level Denver Center
Wed 12:42:33 PM 38.4911 -105.1314 251° West 443 510 47,000  Level Denver Center
Wed 12:43:35 PM 38.4519 -105.2794 251° West 441 507 47,000  Level Denver Center
Wed 12:44:37 PM 38.4117 -105.4272 251° West 441 507 47,000  Level Denver Center
Wed 12:45:39 PM 38.3725 -105.5750 251° West 441 507 47,000  Level Denver Center
Wed 12:46:41 PM 38.3278 -105.7422 251° West 442 509 47,000  Level Denver Center
Wed 12:47:43 PM 38.2900 -105.8836 251° West 442 509 47,000  Level Denver Center
Wed 12:48:45 PM 38.2447 -106.0478 251° West 441 507 47,000  Level Denver Center
Wed 12:49:47 PM 38.2050 -106.1867 250° West 443 510 47,000  Level Denver Center
Wed 12:50:49 PM 38.1658 -106.3325 251° West 437 503 47,000  Level Denver Center
Wed 12:51:51 PM 38.1156 -106.5086 250° West 440 506 47,000  Level Denver Center
Wed 12:52:53 PM 38.0761 -106.6506 251° West 441 507 47,000  Level Denver Center
Wed 12:53:55 PM 38.0306 -106.8150 251° West 443 510 47,000  Level Denver Center
Wed 12:54:57 PM 37.9900 -106.9558 250° West 443 510 47,000  Level Denver Center
Wed 12:56:00 PM 37.9511 -107.0967 251° West 442 509 47,000  Level Denver Center
Wed 12:57:02 PM 37.9044 -107.2606 250° West 442 509 47,000  Level Denver Center
Wed 12:58:04 PM 37.8636 -107.4022 250° West 445 512 47,000  Level Denver Center
Wed 12:59:06 PM 37.8158 -107.5669 250° West 446 513 47,000  Level Denver Center
Wed 01:00:08 PM 37.7744 -107.7086 250° West 448 516 47,000  Level Denver Center
Wed 01:01:10 PM 37.7256 -107.8728 249° West 447 514 47,000  Level Denver Center
Wed 01:02:12 PM 37.6844 -108.0158 250° West 449 517 47,000  Level Denver Center
Wed 01:03:14 PM 37.6364 -108.1800 250° West 447 514 47,000  Level Denver Center
Wed 01:04:16 PM 37.5942 -108.3219 249° West 450 518 47,000  Level Denver Center
Wed 01:05:18 PM 37.5450 -108.4864 249° West 449 517 47,000  Level Denver Center
Wed 01:06:20 PM 37.5028 -108.6272 249° West 448 516 47,000  Level Denver Center
Wed 01:07:22 PM 37.4539 -108.7869 249° West 441 507 47,000  Level Denver Center
Wed 01:08:24 PM 37.4097 -108.9286 249° West 450 518 47,000  Level Denver Center
Wed 01:09:26 PM 37.3683 -109.0683 250° West 447 514 47,000  Level Denver Center
Wed 01:10:28 PM 37.3161 -109.2331 248° West 451 519 47,000  Level Denver Center
Wed 01:11:30 PM 37.2733 -109.3750 249° West 453 521 47,000  Level Denver Center
Wed 01:12:32 PM 37.2294 -109.5153 249° West 451 519 47,000  Level Denver Center
Wed 01:13:35 PM 37.1761 -109.6964 250° West 457 526 47,000  Level Denver Center
Wed 01:14:37 PM 37.1297 -109.8500 249° West 459 528 47,000  Level Denver Center
Wed 01:15:39 PM 37.0842 -109.9767 246° West 442 509 47,000  Level Denver Center
Wed 01:16:41 PM 37.0386 -110.1231 249° West 450 518 47,000  Level Denver Center
Wed 01:17:43 PM 36.9822 -110.2981 248° West 451 519 47,000  Level Denver Center
Wed 01:18:45 PM 36.9350 -110.4436 248° West 452 520 47,000  Level Denver Center
Wed 01:19:47 PM 36.8889 -110.5897 249° West 452 520 47,000  Level Denver Center
Wed 01:20:49 PM 36.8417 -110.7339 248° West 451 519 47,000  Level Denver Center
Wed 01:21:51 PM 36.7947 -110.8803 248° West 453 521 47,000  Level Denver Center
Wed 01:22:53 PM 36.7461 -111.0253 247° West 453 521 47,000  Level Denver Center
Wed 01:23:55 PM 36.6906 -111.1983 248° West 450 518 47,000  Level Denver Center
Wed 01:24:57 PM 36.6428 -111.3431 248° West 451 519 47,000  Level Denver Center
Wed 01:25:59 PM 36.5947 -111.4881 248° West 451 519 47,000  Level Denver Center
Wed 01:27:01 PM 36.5461 -111.6319 247° West 451 519 47,000  Level Denver Center
Wed 01:28:04 PM 36.4975 -111.7767 247° West 452 520 47,000  Level Denver Center
Wed 01:28:47 PM 36.4578 -111.8931 247° West 451 519 47,000  Level Los Angeles Center
Wed 01:29:49 PM 36.4097 -112.0361 247° West 450 518 47,000  Level Los Angeles Center
Wed 01:30:51 PM 36.3608 -112.1803 247° West 451 519 47,000  Level Los Angeles Center
Wed 01:31:53 PM 36.3117 -112.3233 247° West 450 518 47,000  Level Los Angeles Center
Wed 01:32:55 PM 36.2625 -112.4672 247° West 452 520 47,000  Level Los Angeles Center
Wed 01:34:09 PM 36.2028 -112.6375 247° West 449 517 47,000  Level Los Angeles Center
Wed 01:35:12 PM 36.1428 -112.8114 247° West 455 524 47,000  Level Los Angeles Center
Wed 01:36:26 PM 36.0925 -112.9553 247° West 455 524 47,000  Level Los Angeles Center
Wed 01:37:29 PM 36.0322 -113.1278 247° West 455 524 47,000  Level Los Angeles Center
Wed 01:38:31 PM 35.9792 -113.2764 246° West 456 525 47,000  Level Los Angeles Center
Wed 01:39:33 PM 35.9347 -113.4108 248° West 458 527 47,000  Level Los Angeles Center
Wed 01:40:35 PM 35.8739 -113.5808 246° West 458 527 47,000  Level Los Angeles Center
Wed 01:41:37 PM 35.8178 -113.7367 246° West 457 526 47,000  Level Los Angeles Center
Wed 01:42:39 PM 35.7653 -113.8781 245° Southwest 454 522 47,000  Level Los Angeles Center
Wed 01:43:41 PM 35.7139 -114.0217 246° West 455 524 47,000 -484 Level Los Angeles Center
Wed 01:44:43 PM 35.6592 -114.1728 246° West 455 524 46,000 -1,306 Descending Los Angeles Center
Wed 01:45:45 PM 35.6097 -114.3092 246° West 461 531 44,300 -1,824 Descending Los Angeles Center
Wed 01:46:48 PM 35.5583 -114.4483 246° West 450 518 42,200 -2,256 Descending Los Angeles Center
Wed 01:47:50 PM 35.5094 -114.5808 246° West 429 494 39,600 -2,855 Descending Los Angeles Center
Wed 01:48:52 PM 35.4492 -114.7442 246° West 437 503 36,300 -1,742 Descending Los Angeles Center
Wed 01:49:54 PM 35.3961 -114.8892 246° West 458 527 36,000 -145 Descending Los Angeles Center
Wed 01:50:56 PM 35.3406 -115.0411 246° West 482 555 36,000  Level Los Angeles Center
Wed 01:51:58 PM 35.2833 -115.1919 245° Southwest 487 560 36,000 -194 Level Los Angeles Center
Wed 01:53:00 PM 35.2281 -115.3394 245° Southwest 478 550 35,600 -823 Descending Los Angeles Center
Wed 01:54:02 PM 35.1689 -115.4964 245° Southwest 471 542 34,300 -1,296 Descending Los Angeles Center
Wed 01:55:05 PM 35.1131 -115.6453 245° Southwest 481 554 32,900 -1,344 Descending Los Angeles Center
Wed 01:56:07 PM 35.0550 -115.7969 245° Southwest 490 564 31,500 -1,355 Descending Los Angeles Center
Wed 01:57:09 PM 34.9978 -115.9475 245° Southwest 490 564 30,100 -1,548 Descending Los Angeles Center
Wed 01:58:11 PM 34.9392 -116.0994 245° Southwest 494 568 28,300 -1,839 Descending Los Angeles Center
Wed 01:59:13 PM 34.8711 -116.2750 245° Southwest 480 552 26,300 -1,113 Descending Los Angeles Center
Wed 02:00:15 PM 34.8200 -116.4244 247° West 477 549 26,000 -194 Descending Los Angeles Center
Wed 02:01:17 PM 34.7869 -116.5817 256° West 480 552 25,900 -1,016 Descending Los Angeles Center
Wed 02:02:19 PM 34.7711 -116.7364 263° West 463 533 23,900 -1,872 Descending Los Angeles Center
Wed 02:03:22 PM 34.7550 -116.8931 263° West 465 535 22,000 -1,489 Descending Los Angeles Center
Wed 02:04:36 PM 34.7364 -117.0761 263° West 453 521 20,500 -1,191 Descending Los Angeles Center
Wed 02:05:38 PM 34.7183 -117.2522 263° West 436 502 19,300 -1,016 Descending Los Angeles Center
Wed 02:06:40 PM 34.7028 -117.3956 263° West 427 491 18,400 -912 Descending Los Angeles Center
Wed 02:07:43 PM 34.6825 -117.5372 260° West 424 488 17,400 -1,200 Descending Los Angeles Center
Wed 02:08:45 PM 34.6619 -117.6831 260° West 433 498 15,900 -1,645 Descending Los Angeles Center
Wed 02:09:47 PM 34.6436 -117.8219 261° West 419 482 14,000 -1,402 Descending Los Angeles Center
Wed 02:11:00 PM 34.6294 -117.9991 253° West  Level FlightAware Approximate
Wed 02:14:23 PM 34.5667 -118.3000 180° South 303 349 8,000  Level Southern California TRACON
Wed 02:15:17 PM 34.5500 -118.4000 259° West 300 345 8,000 -500 Level Southern California TRACON
Wed 02:16:23 PM 34.5167 -118.4667 239° Southwest 262 302 7,000 -1,190 Descending Southern California TRACON
Wed 02:17:23 PM 34.4500 -118.5167 212° Southwest 247 284 5,500 -1,043 Descending Southern California TRACON
Wed 02:18:00 PM 34.2000 -118.4833 180° South  Level FlightAware Approximate
Wed 02:18:18 PM 34.3833 -118.5000 168° South 247 284 5,000  Level Southern California TRACON
Wed 02:19:00 PM 34.2098 -118.4900 180° South  Level Estimated
Wed 02:19:18 PM 34.3333 -118.5000 180° South 195 224 3,900  Level Southern California TRACON
Wed 02:20:13 PM 34.2833 -118.5000 180° South 155 178 2,500 -1,252 Descending Southern California TRACON
Wed 02:21:13 PM 34.2500 -118.5000 180° South 131 151 1,500 -1,000 Descending Southern California TRACON
Wed 02:23:00 PM 34.2098 -118.4900 180° South  Level Estimated
Wed 02:30:00 PM 34.2098 -118.4900 180° South  Level Estimated
Wed 02:31:00 PM 34.2098 -118.4900 180° South  Level Estimated

Login

Don't have an account? Register now (free) for customized features, flight alerts, and more!